Time;durP1;ratioP1;P1;durP2;ratioP2;P2;SDS_P1;SDS_P2;PMS_P1;PMS_P2;Temp;Humidity;BMP_temperature;BMP_pressure;BME280_temperature;BME280_humidity;BME280_pressure;Samples;Min_cycle;Max_cycle;Signal;HPM_P1;HPM_P2
2023/05/26 00:01:26;;;;;;;;;;;;;;;;;;2219035;58;2114;-71
2023/05/26 00:03:57;;;;;;;;;;;;;;;;;;2218697;66;1601;-71
2023/05/26 00:06:31;;;;;;;;;;;;;;;;;;2218612;59;1471;-71
2023/05/26 00:09:01;;;;;;;;;;;;;;;;;;2218753;66;1727;-71
2023/05/26 00:11:34;;;;;;;;;;;;;;;;;;2219358;66;1449;-71
2023/05/26 00:14:05;;;;;;;;;;;;;;;;;;2214192;58;2744;-71
2023/05/26 00:16:35;;;;;;;;;;;;;;;;;;2218157;58;2695;-70
2023/05/26 00:19:07;;;;;;;;;;;;;;;;;;2217459;58;1936;-71
2023/05/26 00:21:38;;;;;;;;;;;;;;;;;;2218034;59;1629;-70
2023/05/26 00:24:09;;;;;;;;;;;;;;;;;;2218243;59;1457;-70
2023/05/26 00:26:39;;;;;;;;;;;;;;;;;;2218733;66;1498;-70
2023/05/26 00:29:12;;;;;;;;;;;;;;;;;;2216274;59;2542;-70
2023/05/26 00:31:42;;;;;;;;;;;;;;;;;;2218049;66;1489;-71
2023/05/26 00:34:13;;;;;;;;;;;;;;;;;;2217323;59;1833;-70
2023/05/26 00:36:47;;;;;;;;;;;;;;;;;;2214625;59;1809;-70
2023/05/26 00:39:17;;;;;;;;;;;;;;;;;;2216138;58;1934;-70
2023/05/26 00:41:48;;;;;;;;;;;;;;;;;;2218780;59;1321;-71
2023/05/26 00:44:27;;;;;;;;;;;;;;;;;;2218008;58;1675;-70
2023/05/26 00:46:58;;;;;;;;;;;;;;;;;;2218645;58;2089;-70
2023/05/26 00:49:28;;;;;;;;;;;;;;;;;;2214018;58;1296;-70
2023/05/26 00:51:59;;;;;;;;;;;;;;;;;;2218679;58;1360;-71
2023/05/26 00:54:33;;;;;;;;;;;;;;;;;;2219057;58;1705;-73
2023/05/26 00:57:03;;;;;;;;;;;;;;;;;;2219294;66;1339;-70
2023/05/26 00:59:34;;;;;;;;;;;;;;;;;;2219035;58;2051;-70
2023/05/26 01:02:05;;;;;;;;;;;;;;;;;;2219264;58;1623;-71
2023/05/26 01:04:35;;;;;;;;;;;;;;;;;;2219121;58;1868;-70
2023/05/26 01:07:06;;;;;;;;;;;;;;;;;;2220253;66;1714;-70
2023/05/26 01:09:40;;;;;;;;;;;;;;;;;;2220221;58;1731;-70
2023/05/26 01:12:14;;;;;;;;;;;;;;;;;;2217409;66;1578;-70
2023/05/26 01:14:52;;;;;;;;;;;;;;;;;;2220685;66;1497;-70
2023/05/26 01:17:44;;;;;;;;;;;;;;;;;;2219846;58;2293;-70
2023/05/26 01:20:20;;;;;;;;;;;;;;;;;;2221163;66;1944;-70
2023/05/26 01:22:57;;;;;;;;;;;;;;;;;;2219463;66;1378;-71
2023/05/26 01:25:36;;;;;;;;;;;;;;;;;;2218962;66;1437;-70
2023/05/26 01:28:12;;;;;;;;;;;;;;;;;;2218077;66;2005;-70
2023/05/26 01:30:44;;;;;;;;;;;;;;;;;;2219086;66;1362;-71
2023/05/26 01:33:20;;;;;;;;;;;;;;;;;;2218807;59;2042;-70
2023/05/26 01:35:51;;;;;;;;;;;;;;;;;;2219824;58;1290;-71
2023/05/26 01:38:22;;;;;;;;;;;;;;;;;;2215209;58;2493;-70
2023/05/26 01:40:59;;;;;;;;;;;;;;;;;;2220548;66;1343;-70
2023/05/26 01:43:43;;;;;;;;;;;;;;;;;;2220002;66;1256;-70
2023/05/26 01:46:26;;;;;;;;;;;;;;;;;;2219598;66;1396;-70
2023/05/26 01:48:58;;;;;;;;;;;;;;;;;;2219249;66;1690;-71
2023/05/26 01:51:33;;;;;;;;;;;;;;;;;;2218938;58;1926;-71
2023/05/26 01:54:07;;;;;;;;;;;;;;;;;;2219644;66;1427;-70
2023/05/26 01:56:37;;;;;;;;;;;;;;;;;;2219038;66;1625;-71
2023/05/26 01:59:08;;;;;;;;;;;;;;;;;;2218813;59;2232;-70
2023/05/26 02:01:42;;;;;;;;;;;;;;;;;;2219110;58;1445;-72
2023/05/26 02:04:15;;;;;;;;;;;;;;;;;;2218718;59;1831;-71
2023/05/26 02:06:46;;;;;;;;;;;;;;;;;;2219168;66;1692;-71
2023/05/26 02:09:20;;;;;;;;;;;;;;;;;;2219205;66;2509;-71
2023/05/26 02:11:50;;;;;;;;;;;;;;;;;;2215462;59;2263;-71
2023/05/26 02:14:33;;;;;;;;;;;;;;;;;;;;;
2023/05/26 02:17:07;;;;;;;;;;;;;;;;;;2218605;66;2975;-71
2023/05/26 02:19:38;;;;;;;;;;;;;;;;;;2214734;59;2314;-70
2023/05/26 02:22:08;;;;;;;;;;;;;;;;;;2215788;59;1813;-71
2023/05/26 02:24:39;;;;;;;;;;;;;;;;;;2215787;59;1481;-71
2023/05/26 02:27:10;;;;;;;;;;;;;;;;;;2219113;59;1709;-70
2023/05/26 02:29:40;;;;;;;;;;;;;;;;;;2218556;59;2002;-71
2023/05/26 02:32:11;;;;;;;;;;;;;;;;;;2219119;59;1774;-72
2023/05/26 02:34:41;;;;;;;;;;;;;;;;;;2214083;59;2631;-75
2023/05/26 02:37:11;;;;;;;;;;;;;;;;;;2218951;58;1860;-70
2023/05/26 02:39:42;;;;;;;;;;;;;;;;;;2217838;58;1997;-70
2023/05/26 02:42:15;;;;;;;;;;;;;;;;;;2219277;58;2316;-70
2023/05/26 02:44:48;;;;;;;;;;;;;;;;;;2215292;66;1524;-70
2023/05/26 02:47:24;;;;;;;;;;;;;;;;;;2219053;58;2109;-70
2023/05/26 02:49:55;;;;;;;;;;;;;;;;;;2218486;58;1943;-70
2023/05/26 02:52:28;;;;;;;;;;;;;;;;;;2219237;58;1394;-70
2023/05/26 02:54:59;;;;;;;;;;;;;;;;;;2219802;58;1786;-70
2023/05/26 02:57:36;;;;;;;;;;;;;;;;;;2220197;58;2026;-71
2023/05/26 03:00:13;;;;;;;;;;;;;;;;;;2218843;58;2086;-70
2023/05/26 03:02:47;;;;;;;;;;;;;;;;;;2219056;58;2281;-70
2023/05/26 03:05:20;;;;;;;;;;;;;;;;;;2217587;66;2674;-70
2023/05/26 03:07:50;;;;;;;;;;;;;;;;;;2219088;66;1478;-71
2023/05/26 03:10:21;;;;;;;;;;;;;;;;;;2217991;66;1534;-70
2023/05/26 03:12:51;;;;;;;;;;;;;;;;;;2218731;66;1241;-71
2023/05/26 03:15:36;;;;;;;;;;;;;;;;;;2218521;66;1428;-70
2023/05/26 03:18:07;;;;;;;;;;;;;;;;;;2213306;59;2227;-70
2023/05/26 03:20:40;;;;;;;;;;;;;;;;;;2217652;59;2717;-70
2023/05/26 03:23:10;;;;;;;;;;;;;;;;;;2218179;59;1562;-70
2023/05/26 03:25:41;;;;;;;;;;;;;;;;;;2219243;66;1454;-70
2023/05/26 03:28:15;;;;;;;;;;;;;;;;;;2218299;66;2578;-70
2023/05/26 03:30:45;;;;;;;;;;;;;;;;;;2219063;59;1275;-71
2023/05/26 03:33:15;;;;;;;;;;;;;;;;;;2217750;59;1814;-69
2023/05/26 03:35:46;;;;;;;;;;;;;;;;;;2211638;59;2335;-69
2023/05/26 03:38:19;;;;;;;;;;;;;;;;;;2217979;58;2434;-74
2023/05/26 03:40:52;;;;;;;;;;;;;;;;;;2218236;66;1430;-70
2023/05/26 03:43:23;;;;;;;;;;;;;;;;;;2218911;66;1636;-72
2023/05/26 03:46:01;;;;;;;;;;;;;;;;;;2219078;59;1371;-70
2023/05/26 03:48:31;;;;;;;;;;;;;;;;;;2217429;58;2117;-71
2023/05/26 03:51:01;;;;;;;;;;;;;;;;;;2218367;58;1343;-71
2023/05/26 03:53:32;;;;;;;;;;;;;;;;;;2218284;66;1615;-72
2023/05/26 03:56:03;;;;;;;;;;;;;;;;;;2218936;59;2062;-70
2023/05/26 03:58:33;;;;;;;;;;;;;;;;;;2216824;58;2712;-70
2023/05/26 04:01:03;;;;;;;;;;;;;;;;;;2215396;59;1948;-70
2023/05/26 04:03:34;;;;;;;;;;;;;;;;;;2217935;66;2244;-70
2023/05/26 04:06:05;;;;;;;;;;;;;;;;;;2218489;66;1437;-70
2023/05/26 04:08:35;;;;;;;;;;;;;;;;;;2211619;66;1817;-70
2023/05/26 04:11:06;;;;;;;;;;;;;;;;;;2218944;58;1733;-70
2023/05/26 04:13:38;;;;;;;;;;;;;;;;;;2218810;66;1569;-70
2023/05/26 04:16:08;;;;;;;;;;;;;;;;;;2217871;66;1378;-71
2023/05/26 04:18:40;;;;;;;;;;;;;;;;;;2217568;58;2668;-70
2023/05/26 04:21:16;;;;;;;;;;;;;;;;;;2217638;59;2263;-69
2023/05/26 04:23:51;;;;;;;;;;;;;;;;;;2218667;59;1605;-70
2023/05/26 04:26:32;;;;;;;;;;;;;;;;;;2218379;58;1549;-70
2023/05/26 04:29:03;;;;;;;;;;;;;;;;;;2218024;66;1957;-70
2023/05/26 04:31:40;;;;;;;;;;;;;;;;;;2218777;59;2441;-71
2023/05/26 04:34:11;;;;;;;;;;;;;;;;;;2217703;59;2370;-70
2023/05/26 04:36:42;;;;;;;;;;;;;;;;;;2218464;58;1862;-71
2023/05/26 04:39:12;;;;;;;;;;;;;;;;;;2217844;59;2255;-70
2023/05/26 04:41:44;;;;;;;;;;;;;;;;;;2219047;59;1663;-71
2023/05/26 04:44:15;;;;;;;;;;;;;;;;;;2215055;59;2013;-70
2023/05/26 04:46:49;;;;;;;;;;;;;;;;;;2215297;58;2957;-69
2023/05/26 04:49:23;;;;;;;;;;;;;;;;;;2217665;58;2744;-71
2023/05/26 04:52:01;;;;;;;;;;;;;;;;;;2219533;58;1825;-70
2023/05/26 04:54:40;;;;;;;;;;;;;;;;;;2218513;58;2365;-71
2023/05/26 04:57:11;;;;;;;;;;;;;;;;;;2218807;58;2143;-70
2023/05/26 04:59:42;;;;;;;;;;;;;;;;;;2218148;58;1934;-71
2023/05/26 05:02:12;;;;;;;;;;;;;;;;;;2220076;58;2440;-71
2023/05/26 05:04:43;;;;;;;;;;;;;;;;;;2218411;66;2229;-70
2023/05/26 05:07:14;;;;;;;;;;;;;;;;;;2215987;66;1919;-70
2023/05/26 05:09:45;;;;;;;;;;;;;;;;;;2218725;58;2205;-70
2023/05/26 05:12:30;;;;;;;;;;;;;;;;;;2220820;59;2190;-70
2023/05/26 05:15:06;;;;;;;;;;;;;;;;;;2218951;66;1773;-70
2023/05/26 05:17:39;;;;;;;;;;;;;;;;;;2218166;58;1842;-70
2023/05/26 05:20:10;;;;;;;;;;;;;;;;;;2213670;59;3040;-71
2023/05/26 05:22:43;;;;;;;;;;;;;;;;;;2217868;66;2247;-70
2023/05/26 05:25:19;;;;;;;;;;;;;;;;;;2218614;59;1611;-70
2023/05/26 05:27:57;;;;;;;;;;;;;;;;;;2219021;58;1646;-71
2023/05/26 05:30:32;;;;;;;;;;;;;;;;;;2217803;59;2764;-71
2023/05/26 05:33:02;;;;;;;;;;;;;;;;;;2218824;66;1410;-71
2023/05/26 05:35:33;;;;;;;;;;;;;;;;;;2219427;58;2016;-70
2023/05/26 05:38:03;;;;;;;;;;;;;;;;;;2222020;58;1573;-71
2023/05/26 05:40:36;;;;;;;;;;;;;;;;;;2216830;66;2615;-70
2023/05/26 05:43:07;;;;;;;;;;;;;;;;;;2218851;58;1554;-70
2023/05/26 05:45:46;;;;;;;;;;;;;;;;;;2215256;66;1253;-70
2023/05/26 05:48:16;;;;;;;;;;;;;;;;;;2218250;58;2165;-70
2023/05/26 05:50:46;;;;;;;;;;;;;;;;;;2219051;58;1324;-70
2023/05/26 05:53:17;;;;;;;;;;;;;;;;;;2219432;66;1680;-71
2023/05/26 05:55:50;;;;;;;;;;;;;;;;;;2214411;59;1382;-70
2023/05/26 05:58:21;;;;;;;;;;;;;;;;;;2213937;59;2318;-71
2023/05/26 06:00:54;;;;;;;;;;;;;;;;;;2218294;59;1995;-70
2023/05/26 06:03:24;;;;;;;;;;;;;;;;;;2224039;58;2407;-70
2023/05/26 06:05:55;;;;;;;;;;;;;;;;;;2223580;66;1876;-70
2023/05/26 06:08:25;;;;;;;;;;;;;;;;;;2227194;66;1649;-70
2023/05/26 06:10:58;;;;;;;;;;;;;;;;;;2228033;58;2088;-70
2023/05/26 06:13:29;;;;;;;;;;;;;;;;;;2228957;66;2035;-70
2023/05/26 06:15:59;;;;;;;;;;;;;;;;;;2219997;66;1933;-70
2023/05/26 06:18:30;;;;;;;;;;;;;;;;;;2218785;58;2150;-71
2023/05/26 06:21:00;;;;;;;;;;;;;;;;;;2215762;59;2726;-70
2023/05/26 06:23:30;;;;;;;;;;;;;;;;;;2215697;58;2867;-71
2023/05/26 06:26:00;;;;;;;;;;;;;;;;;;2215682;66;2141;-70
2023/05/26 06:28:31;;;;;;;;;;;;;;;;;;2218241;59;1770;-72
2023/05/26 06:31:01;;;;;;;;;;;;;;;;;;2218981;58;2142;-70
2023/05/26 06:33:31;;;;;;;;;;;;;;;;;;2218368;59;2464;-71
2023/05/26 06:36:02;;;;;;;;;;;;;;;;;;2219616;58;2066;-70
2023/05/26 06:38:32;;;;;;;;;;;;;;;;;;2218699;58;2389;-70
2023/05/26 06:41:02;;;;;;;;;;;;;;;;;;2219461;66;1931;-71
2023/05/26 06:43:33;;;;;;;;;;;;;;;;;;2218981;58;2156;-71
2023/05/26 06:46:03;;;;;;;;;;;;;;;;;;2214890;66;2451;-71
2023/05/26 06:48:33;;;;;;;;;;;;;;;;;;2216708;58;2225;-70
2023/05/26 06:51:03;;;;;;;;;;;;;;;;;;2217706;58;1939;-70
2023/05/26 06:53:34;;;;;;;;;;;;;;;;;;2218033;58;2035;-71
2023/05/26 06:56:05;;;;;;;;;;;;;;;;;;2218582;59;1553;-70
2023/05/26 06:58:36;;;;;;;;;;;;;;;;;;2216057;58;2162;-70
2023/05/26 07:01:07;;;;;;;;;;;;;;;;;;2218547;58;1481;-70
2023/05/26 07:03:37;;;;;;;;;;;;;;;;;;2217645;58;1914;-70
2023/05/26 07:06:07;;;;;;;;;;;;;;;;;;2215378;66;1339;-71
2023/05/26 07:08:40;;;;;;;;;;;;;;;;;;2217469;66;2448;-71
2023/05/26 07:11:10;;;;;;;;;;;;;;;;;;2219391;59;1401;-70
2023/05/26 07:13:40;;;;;;;;;;;;;;;;;;2223936;66;1343;-71
2023/05/26 07:16:11;;;;;;;;;;;;;;;;;;2215843;59;1876;-71
2023/05/26 07:18:41;;;;;;;;;;;;;;;;;;2214989;58;1915;-71
2023/05/26 07:21:11;;;;;;;;;;;;;;;;;;2218970;59;2926;-70
2023/05/26 07:23:43;;;;;;;;;;;;;;;;;;2218046;58;2227;-71
2023/05/26 07:26:13;;;;;;;;;;;;;;;;;;2218757;58;2062;-70
2023/05/26 07:28:43;;;;;;;;;;;;;;;;;;2217967;59;2091;-70
2023/05/26 07:31:13;;;;;;;;;;;;;;;;;;2219164;66;2673;-71
2023/05/26 07:33:44;;;;;;;;;;;;;;;;;;2215505;59;1802;-71
2023/05/26 07:36:14;;;;;;;;;;;;;;;;;;2219042;58;1772;-71
2023/05/26 07:38:48;;;;;;;;;;;;;;;;;;2218919;59;1937;-71
2023/05/26 07:41:21;;;;;;;;;;;;;;;;;;2219343;66;2818;-71
2023/05/26 07:43:51;;;;;;;;;;;;;;;;;;2219044;58;1920;-71
2023/05/26 07:46:22;;;;;;;;;;;;;;;;;;2216011;58;2302;-71
2023/05/26 07:48:53;;;;;;;;;;;;;;;;;;2216522;59;2488;-71
2023/05/26 07:51:23;;;;;;;;;;;;;;;;;;2214971;59;2543;-72
2023/05/26 07:53:54;;;;;;;;;;;;;;;;;;2218272;58;2602;-71
2023/05/26 07:56:25;;;;;;;;;;;;;;;;;;2213778;59;1841;-71
2023/05/26 07:58:55;;;;;;;;;;;;;;;;;;2216975;58;2217;-70
2023/05/26 08:01:26;;;;;;;;;;;;;;;;;;2219824;58;1743;-71
2023/05/26 08:03:56;;;;;;;;;;;;;;;;;;2219656;58;2348;-71
2023/05/26 08:06:26;;;;;;;;;;;;;;;;;;2220067;66;1750;-71
2023/05/26 08:08:56;;;;;;;;;;;;;;;;;;2218624;58;2421;-71
2023/05/26 08:11:27;;;;;;;;;;;;;;;;;;2219034;66;1892;-71
2023/05/26 08:13:58;;;;;;;;;;;;;;;;;;2218225;66;1631;-71
2023/05/26 08:16:28;;;;;;;;;;;;;;;;;;2216804;58;2295;-71
2023/05/26 08:18:59;;;;;;;;;;;;;;;;;;2216226;58;2134;-71
2023/05/26 08:21:30;;;;;;;;;;;;;;;;;;2217064;59;1746;-70
2023/05/26 08:24:00;;;;;;;;;;;;;;;;;;2213435;58;2777;-71
2023/05/26 08:26:30;;;;;;;;;;;;;;;;;;2216011;58;2079;-70
2023/05/26 08:29:01;;;;;;;;;;;;;;;;;;2217730;58;2339;-75
2023/05/26 08:31:31;;;;;;;;;;;;;;;;;;2217650;58;2388;-70
2023/05/26 08:34:01;;;;;;;;;;;;;;;;;;2218307;66;1934;-71
2023/05/26 08:36:31;;;;;;;;;;;;;;;;;;2219249;58;1301;-71
2023/05/26 08:39:02;;;;;;;;;;;;;;;;;;2217107;66;2451;-71
2023/05/26 08:41:38;;;;;;;;;;;;;;;;;;2218851;66;1939;-71
2023/05/26 08:44:08;;;;;;;;;;;;;;;;;;2214137;59;2251;-71
2023/05/26 08:46:39;;;;;;;;;;;;;;;;;;2218423;58;2406;-70
2023/05/26 08:49:10;;;;;;;;;;;;;;;;;;2217588;58;2291;-71
2023/05/26 08:51:44;;;;;;;;;;;;;;;;;;2214477;59;2508;-71
2023/05/26 08:54:15;;;;;;;;;;;;;;;;;;2217363;58;3311;-71
2023/05/26 08:56:46;;;;;;;;;;;;;;;;;;2217178;58;2175;-71
2023/05/26 08:59:16;;;;;;;;;;;;;;;;;;2214519;58;2434;-72
2023/05/26 09:01:47;;;;;;;;;;;;;;;;;;2218221;53;2156;-19
2023/05/26 09:04:17;;;;;;;;;;;;;;;;;;2217755;66;1900;-19
2023/05/26 09:06:50;;;;;;;;;;;;;;;;;;2217740;58;2243;-19
2023/05/26 09:09:20;;;;;;;;;;;;;;;;;;2217389;58;2240;-19
2023/05/26 09:11:51;;;;;;;;;;;;;;;;;;2218184;58;2772;-19
2023/05/26 09:14:24;;;;;;;;;;;;;;;;;;2219754;58;1754;-19
2023/05/26 09:17:03;;;;;;;;;;;;;;;;;;2216609;58;1838;-19
2023/05/26 09:19:34;;;;;;;;;;;;;;;;;;2212383;58;2002;-19
2023/05/26 09:22:06;;;;;;;;;;;;;;;;;;2217338;59;2002;-20
2023/05/26 09:24:47;;;;;;;;;;;;;;;;;;2218113;66;2567;-19
2023/05/26 09:27:21;;;;;;;;;;;;;;;;;;2219559;58;2869;-18
2023/05/26 09:29:53;;;;;;;;;;;;;;;;;;2219691;66;2506;-19
2023/05/26 09:32:26;;;;;;;;;;;;;;;;;;2220274;59;1897;-18
2023/05/26 09:34:59;;;;;;;;;;;;;;;;;;2219423;66;2141;-20
2023/05/26 09:37:30;;;;;;;;;;;;;;;;;;2220177;66;1100;-18
2023/05/26 09:40:08;;;;;;;;;;;;;;;;;;2215546;58;2011;-19
2023/05/26 09:42:45;;;;;;;;;;;;;;;;;;2217279;58;2455;-20
2023/05/26 09:45:15;;;;;;;;;;;;;;;;;;2217863;58;2150;-19
2023/05/26 09:47:50;;;;;;;;;;;;;;;;;;2219087;58;2188;-19
2023/05/26 09:50:21;;;;;;;;;;;;;;;;;;2215164;59;1843;-18
2023/05/26 09:52:51;;;;;;;;;;;;;;;;;;2219753;58;1268;-19
2023/05/26 09:55:22;;;;;;;;;;;;;;;;;;2219049;58;1324;-18
2023/05/26 09:57:53;;;;;;;;;;;;;;;;;;2218709;58;2207;-18
2023/05/26 10:00:25;;;;;;;;;;;;;;;;;;2218980;58;2562;-18
2023/05/26 10:02:56;;;;;;;;;;;;;;;;;;2219857;58;1648;-19
2023/05/26 10:05:26;;;;;;;;;;;;;;;;;;2219439;66;1224;-18
2023/05/26 10:07:57;;;;;;;;;;;;;;;;;;2219292;66;1492;-18
2023/05/26 10:10:31;;;;;;;;;;;;;;;;;;2219014;58;2173;-18
2023/05/26 10:13:03;;;;;;;;;;;;;;;;;;2219423;66;1416;-19
2023/05/26 10:15:34;;;;;;;;;;;;;;;;;;2216330;66;1668;-19
2023/05/26 10:18:04;;;;;;;;;;;;;;;;;;2220132;66;1292;-18
2023/05/26 10:20:36;;;;;;;;;;;;;;;;;;2219191;58;1979;-19
2023/05/26 10:23:09;;;;;;;;;;;;;;;;;;2218947;66;1908;-18
2023/05/26 10:25:45;;;;;;;;;;;;;;;;;;2218583;59;2722;-19
2023/05/26 10:28:31;;;;;;;;;;;;;;;;;;2219719;66;2206;-19
2023/05/26 10:31:02;;;;;;;;;;;;;;;;;;2218996;66;2668;-19
2023/05/26 10:33:42;;;;;;;;;;;;;;;;;;2216565;66;2359;-18
2023/05/26 10:36:18;;;;;;;;;;;;;;;;;;2220228;58;2668;-19
2023/05/26 10:38:51;;;;;;;;;;;;;;;;;;2218877;58;2677;-19
2023/05/26 10:41:28;;;;;;;;;;;;;;;;;;2219916;58;1192;-19
2023/05/26 10:44:00;;;;;;;;;;;;;;;;;;2219868;66;1612;-19
2023/05/26 10:46:37;;;;;;;;;;;;;;;;;;2219630;58;2531;-18
2023/05/26 10:49:20;;;;;;;;;;;;;;;;;;2218772;66;2134;-18
2023/05/26 10:51:54;;;;;;;;;;;;;;;;;;2219229;58;1743;-19
2023/05/26 10:54:25;;;;;;;;;;;;;;;;;;2219885;58;1809;-18
2023/05/26 10:56:55;;;;;;;;;;;;;;;;;;2219591;66;1723;-18
2023/05/26 10:59:30;;;;;;;;;;;;;;;;;;2218377;58;2187;-19
2023/05/26 11:02:04;;;;;;;;;;;;;;;;;;2220060;58;1199;-19
2023/05/26 11:04:45;;;;;;;;;;;;;;;;;;2219046;66;1814;-18
2023/05/26 11:07:21;;;;;;;;;;;;;;;;;;2220265;66;2377;-19
2023/05/26 11:09:56;;;;;;;;;;;;;;;;;;2218811;66;1927;-18
2023/05/26 11:12:30;;;;;;;;;;;;;;;;;;2219921;66;1658;-18
2023/05/26 11:15:19;;;;;;;;;;;;;;;;;;2219514;66;1401;-19
2023/05/26 11:17:57;;;;;;;;;;;;;;;;;;2218920;66;1487;-19
2023/05/26 11:20:28;;;;;;;;;;;;;;;;;;2218680;66;2484;-18
2023/05/26 11:22:58;;;;;;;;;;;;;;;;;;2219840;66;1584;-18
2023/05/26 11:25:28;;;;;;;;;;;;;;;;;;2219666;66;2316;-18
2023/05/26 11:27:58;;;;;;;;;;;;;;;;;;2219097;58;2590;-19
2023/05/26 11:30:33;;;;;;;;;;;;;;;;;;2218195;58;2758;-18
2023/05/26 11:33:10;;;;;;;;;;;;;;;;;;2219381;66;2581;-18
2023/05/26 11:35:40;;;;;;;;;;;;;;;;;;2219205;58;2871;-19
2023/05/26 11:38:10;;;;;;;;;;;;;;;;;;2219363;66;1228;-19
2023/05/26 11:40:42;;;;;;;;;;;;;;;;;;2218457;58;2431;-19
2023/05/26 11:43:12;;;;;;;;;;;;;;;;;;2219540;59;1749;-20
2023/05/26 11:45:43;;;;;;;;;;;;;;;;;;2218889;66;1145;-19
2023/05/26 11:48:13;;;;;;;;;;;;;;;;;;2220213;58;2183;-19
2023/05/26 11:50:43;;;;;;;;;;;;;;;;;;2218183;58;2365;-18
2023/05/26 11:53:13;;;;;;;;;;;;;;;;;;2218939;66;1584;-19
2023/05/26 11:55:45;;;;;;;;;;;;;;;;;;2220145;58;1603;-21
2023/05/26 11:58:16;;;;;;;;;;;;;;;;;;2219955;66;2267;-20
2023/05/26 12:00:46;;;;;;;;;;;;;;;;;;2219065;58;2584;-20
2023/05/26 12:03:17;;;;;;;;;;;;;;;;;;2218825;58;1974;-20
2023/05/26 12:05:47;;;;;;;;;;;;;;;;;;2218698;58;2890;-20
2023/05/26 12:08:17;;;;;;;;;;;;;;;;;;2219256;66;1715;-20
2023/05/26 12:10:48;;;;;;;;;;;;;;;;;;2217230;58;2529;-20
2023/05/26 12:13:26;;;;;;;;;;;;;;;;;;2219529;58;1990;-19
2023/05/26 12:15:56;;;;;;;;;;;;;;;;;;2219217;58;1803;-19
2023/05/26 12:18:26;;;;;;;;;;;;;;;;;;2219825;66;2094;-19
2023/05/26 12:20:56;;;;;;;;;;;;;;;;;;2217714;58;2607;-19
2023/05/26 12:23:27;;;;;;;;;;;;;;;;;;2220226;66;1760;-20
2023/05/26 12:25:57;;;;;;;;;;;;;;;;;;2219533;59;3108;-19
2023/05/26 12:28:27;;;;;;;;;;;;;;;;;;2219042;58;2678;-18
2023/05/26 12:30:57;;;;;;;;;;;;;;;;;;2218872;66;2241;-19
2023/05/26 12:33:28;;;;;;;;;;;;;;;;;;2219632;58;2569;-19
2023/05/26 12:35:59;;;;;;;;;;;;;;;;;;2219291;58;2382;-18
2023/05/26 12:38:40;;;;;;;;;;;;;;;;;;2220134;58;1864;-18
2023/05/26 12:41:10;;;;;;;;;;;;;;;;;;2213001;58;3560;-19
2023/05/26 12:43:41;;;;;;;;;;;;;;;;;;2218377;58;2539;-19
2023/05/26 12:46:11;;;;;;;;;;;;;;;;;;2218676;58;2264;-20
2023/05/26 12:48:41;;;;;;;;;;;;;;;;;;2220031;58;2750;-18
2023/05/26 12:51:15;;;;;;;;;;;;;;;;;;2217636;58;2694;-19
2023/05/26 12:53:46;;;;;;;;;;;;;;;;;;2220038;58;2727;-19
2023/05/26 12:56:16;;;;;;;;;;;;;;;;;;2220343;59;2040;-20
2023/05/26 12:58:47;;;;;;;;;;;;;;;;;;2220204;58;2499;-20
2023/05/26 13:01:18;;;;;;;;;;;;;;;;;;2220305;58;3152;-20
2023/05/26 13:03:48;;;;;;;;;;;;;;;;;;2220025;66;2250;-20
2023/05/26 13:06:18;;;;;;;;;;;;;;;;;;2220394;66;2634;-20
2023/05/26 13:08:49;;;;;;;;;;;;;;;;;;2220190;59;2441;-20
2023/05/26 13:11:23;;;;;;;;;;;;;;;;;;2219386;66;3466;-19
2023/05/26 13:13:53;;;;;;;;;;;;;;;;;;2214963;58;2750;-20
2023/05/26 13:16:23;;;;;;;;;;;;;;;;;;2215188;58;2809;-20
2023/05/26 13:18:53;;;;;;;;;;;;;;;;;;2219776;58;1943;-19
2023/05/26 13:21:24;;;;;;;;;;;;;;;;;;2219572;58;2143;-19
2023/05/26 13:23:55;;;;;;;;;;;;;;;;;;2220236;66;2576;-19
2023/05/26 13:26:26;;;;;;;;;;;;;;;;;;2217106;66;2467;-19
2023/05/26 13:28:57;;;;;;;;;;;;;;;;;;2218010;59;3020;-20
2023/05/26 13:31:27;;;;;;;;;;;;;;;;;;2218558;58;2841;-19
2023/05/26 13:33:57;;;;;;;;;;;;;;;;;;2218828;66;2754;-19
2023/05/26 13:36:28;;;;;;;;;;;;;;;;;;2219901;58;2088;-19
2023/05/26 13:38:58;;;;;;;;;;;;;;;;;;2219852;58;1938;-20
2023/05/26 13:41:28;;;;;;;;;;;;;;;;;;2216830;58;2542;-20
2023/05/26 13:43:58;;;;;;;;;;;;;;;;;;2219088;58;2637;-20
2023/05/26 13:46:29;;;;;;;;;;;;;;;;;;2220697;58;2162;-19
2023/05/26 13:48:59;;;;;;;;;;;;;;;;;;2217468;58;2280;-20
2023/05/26 13:51:29;;;;;;;;;;;;;;;;;;2218215;58;2495;-18
2023/05/26 13:54:01;;;;;;;;;;;;;;;;;;2218010;58;1611;-20
2023/05/26 13:56:31;;;;;;;;;;;;;;;;;;2219442;58;2135;-20
2023/05/26 13:59:02;;;;;;;;;;;;;;;;;;2219091;58;2189;-20
2023/05/26 14:01:32;;;;;;;;;;;;;;;;;;2219612;58;2364;-20
2023/05/26 14:04:02;;;;;;;;;;;;;;;;;;2219708;58;1583;-19
2023/05/26 14:06:36;;;;;;;;;;;;;;;;;;2217398;59;2217;-19
2023/05/26 14:09:07;;;;;;;;;;;;;;;;;;2219016;58;2102;-19
2023/05/26 14:11:39;;;;;;;;;;;;;;;;;;2219044;58;2310;-19
2023/05/26 14:14:09;;;;;;;;;;;;;;;;;;2219056;66;2091;-19
2023/05/26 14:16:40;;;;;;;;;;;;;;;;;;2219798;66;1619;-20
2023/05/26 14:19:11;;;;;;;;;;;;;;;;;;2219223;58;2218;-18
2023/05/26 14:21:42;;;;;;;;;;;;;;;;;;2219669;58;1965;-19
2023/05/26 14:24:12;;;;;;;;;;;;;;;;;;2219342;58;1730;-19
2023/05/26 14:26:43;;;;;;;;;;;;;;;;;;2220412;58;1544;-20
2023/05/26 14:29:14;;;;;;;;;;;;;;;;;;2217704;59;3052;-19
2023/05/26 14:31:45;;;;;;;;;;;;;;;;;;2219376;66;3738;-20
2023/05/26 14:34:15;;;;;;;;;;;;;;;;;;2218526;58;2267;-19
2023/05/26 14:36:45;;;;;;;;;;;;;;;;;;2219137;58;2666;-20
2023/05/26 14:39:16;;;;;;;;;;;;;;;;;;2217861;58;2792;-20
2023/05/26 14:41:46;;;;;;;;;;;;;;;;;;2219497;58;3083;-18
2023/05/26 14:44:16;;;;;;;;;;;;;;;;;;2219180;59;2775;-19
2023/05/26 14:46:47;;;;;;;;;;;;;;;;;;2219375;58;2385;-19
2023/05/26 14:49:17;;;;;;;;;;;;;;;;;;2218181;58;2517;-18
2023/05/26 14:51:48;;;;;;;;;;;;;;;;;;2219405;58;1640;-19
2023/05/26 14:54:18;;;;;;;;;;;;;;;;;;2219025;58;2729;-19
2023/05/26 14:56:49;;;;;;;;;;;;;;;;;;2220322;66;1857;-19
2023/05/26 14:59:19;;;;;;;;;;;;;;;;;;2219238;58;2177;-19
2023/05/26 15:01:49;;;;;;;;;;;;;;;;;;2219662;58;2619;-19
2023/05/26 15:04:20;;;;;;;;;;;;;;;;;;2218841;58;2406;-20
2023/05/26 15:06:51;;;;;;;;;;;;;;;;;;2219318;66;2534;-19
2023/05/26 15:09:21;;;;;;;;;;;;;;;;;;2219973;66;2604;-19
2023/05/26 15:11:51;;;;;;;;;;;;;;;;;;2219288;58;2657;-20
2023/05/26 15:14:22;;;;;;;;;;;;;;;;;;2219497;58;1909;-19
2023/05/26 15:16:52;;;;;;;;;;;;;;;;;;2218518;58;2332;-19
2023/05/26 15:19:22;;;;;;;;;;;;;;;;;;2219084;58;2278;-19
2023/05/26 15:21:53;;;;;;;;;;;;;;;;;;2218955;66;2262;-19
2023/05/26 15:24:23;;;;;;;;;;;;;;;;;;2219015;66;2779;-18
2023/05/26 15:26:53;;;;;;;;;;;;;;;;;;2219665;58;2733;-19
2023/05/26 15:29:23;;;;;;;;;;;;;;;;;;2219312;66;2810;-19
2023/05/26 15:31:53;;;;;;;;;;;;;;;;;;2218008;59;3455;-18
2023/05/26 15:34:24;;;;;;;;;;;;;;;;;;2219679;66;2462;-18
2023/05/26 15:36:54;;;;;;;;;;;;;;;;;;2220360;58;1831;-19
2023/05/26 15:39:24;;;;;;;;;;;;;;;;;;2219467;58;1969;-18
2023/05/26 15:41:54;;;;;;;;;;;;;;;;;;2219484;66;2146;-18
2023/05/26 15:44:25;;;;;;;;;;;;;;;;;;2220044;59;1958;-18
2023/05/26 15:46:55;;;;;;;;;;;;;;;;;;2218851;58;2622;-19
2023/05/26 15:49:26;;;;;;;;;;;;;;;;;;2220025;66;2557;-19
2023/05/26 15:51:56;;;;;;;;;;;;;;;;;;2218936;58;2775;-19
2023/05/26 15:54:27;;;;;;;;;;;;;;;;;;2218908;58;2106;-19
2023/05/26 15:56:57;;;;;;;;;;;;;;;;;;2218843;58;2217;-18
2023/05/26 15:59:27;;;;;;;;;;;;;;;;;;2218280;58;2374;-19
2023/05/26 16:01:57;;;;;;;;;;;;;;;;;;2219362;58;2492;-19
2023/05/26 16:04:28;;;;;;;;;;;;;;;;;;2219777;58;2363;-18
2023/05/26 16:06:59;;;;;;;;;;;;;;;;;;2217003;58;2298;-19
2023/05/26 16:09:29;;;;;;;;;;;;;;;;;;2219740;58;1756;-19
2023/05/26 16:11:59;;;;;;;;;;;;;;;;;;2219477;58;2393;-19
2023/05/26 16:14:29;;;;;;;;;;;;;;;;;;2216427;59;2426;-19
2023/05/26 16:17:00;;;;;;;;;;;;;;;;;;2219586;58;2780;-20
2023/05/26 16:19:30;;;;;;;;;;;;;;;;;;2219431;66;1927;-19
2023/05/26 16:22:00;;;;;;;;;;;;;;;;;;2219660;66;1355;-18
2023/05/26 16:24:30;;;;;;;;;;;;;;;;;;2219766;58;1236;-18
2023/05/26 16:27:01;;;;;;;;;;;;;;;;;;2219036;66;1575;-18
2023/05/26 16:29:32;;;;;;;;;;;;;;;;;;2220636;66;1457;-18
2023/05/26 16:32:03;;;;;;;;;;;;;;;;;;2218327;58;2763;-19
2023/05/26 16:34:33;;;;;;;;;;;;;;;;;;2220978;66;2440;-19
2023/05/26 16:37:04;;;;;;;;;;;;;;;;;;2220208;58;2456;-19
2023/05/26 16:39:34;;;;;;;;;;;;;;;;;;2221276;58;1939;-20
2023/05/26 16:42:04;;;;;;;;;;;;;;;;;;2220436;58;1952;-18
2023/05/26 16:44:34;;;;;;;;;;;;;;;;;;2220293;66;2161;-19
2023/05/26 16:47:05;;;;;;;;;;;;;;;;;;2219924;58;2078;-18
2023/05/26 16:49:35;;;;;;;;;;;;;;;;;;2220031;59;1226;-19
2023/05/26 16:52:06;;;;;;;;;;;;;;;;;;2221145;66;1377;-19
2023/05/26 16:54:36;;;;;;;;;;;;;;;;;;2221224;58;1272;-19
2023/05/26 16:57:06;;;;;;;;;;;;;;;;;;2220257;66;1143;-18
2023/05/26 16:59:36;;;;;;;;;;;;;;;;;;2219789;58;2043;-20
2023/05/26 17:02:06;;;;;;;;;;;;;;;;;;2220403;58;1364;-18
2023/05/26 17:04:38;;;;;;;;;;;;;;;;;;2219694;66;1664;-19
2023/05/26 17:07:08;;;;;;;;;;;;;;;;;;2220098;66;1656;-21
2023/05/26 17:09:38;;;;;;;;;;;;;;;;;;2220453;66;2390;-20
2023/05/26 17:12:08;;;;;;;;;;;;;;;;;;2219882;66;1799;-19
2023/05/26 17:14:38;;;;;;;;;;;;;;;;;;2219751;66;1759;-19
2023/05/26 17:17:09;;;;;;;;;;;;;;;;;;2219096;58;2055;-20
2023/05/26 17:19:39;;;;;;;;;;;;;;;;;;2219945;66;1995;-19
2023/05/26 17:22:09;;;;;;;;;;;;;;;;;;2220172;66;1865;-20
2023/05/26 17:24:40;;;;;;;;;;;;;;;;;;2220577;66;1677;-19
2023/05/26 17:27:11;;;;;;;;;;;;;;;;;;2219709;58;2124;-19
2023/05/26 17:29:41;;;;;;;;;;;;;;;;;;2220283;58;2213;-19
2023/05/26 17:32:16;;;;;;;;;;;;;;;;;;2219214;58;2684;-21
2023/05/26 17:34:47;;;;;;;;;;;;;;;;;;2219924;59;2198;-19